createdAt,value
2023-04-16T00:01:44.531Z,97305.80
2023-04-16T00:04:12.692Z,97305.63
2023-04-16T00:06:41.136Z,97303.12
2023-04-16T00:09:09.285Z,97305.63
2023-04-16T00:11:37.483Z,97303.59
2023-04-16T00:14:05.964Z,97305.23
2023-04-16T00:16:34.158Z,97306.37
2023-04-16T00:19:02.057Z,97310.29
2023-04-16T00:21:31.303Z,97311.55
2023-04-16T00:23:59.272Z,97311.28
2023-04-16T00:26:27.330Z,97306.55
2023-04-16T00:28:55.616Z,97307.58
2023-04-16T00:31:31.224Z,97307.88
2023-04-16T00:34:00.061Z,97312.30
2023-04-16T00:36:29.140Z,97316.48
2023-04-16T00:38:57.426Z,97319.01
2023-04-16T00:41:26.407Z,97319.73
2023-04-16T00:43:54.273Z,97325.29
2023-04-16T00:46:23.941Z,97328.96
2023-04-16T00:48:54.374Z,97326.11
2023-04-16T00:51:22.701Z,97326.35
2023-04-16T00:53:51.165Z,97327.16
2023-04-16T00:56:20.484Z,97326.95
2023-04-16T00:58:50.274Z,97325.62
2023-04-16T01:01:18.386Z,97328.25
2023-04-16T01:03:48.451Z,97324.52
2023-04-16T01:06:19.500Z,97324.78
2023-04-16T01:08:48.724Z,97323.94
2023-04-16T01:11:16.890Z,97326.86
2023-04-16T01:13:45.065Z,97329.41
2023-04-16T01:16:13.433Z,97330.34
2023-04-16T01:18:42.670Z,97332.70
2023-04-16T01:21:10.805Z,97334.34
2023-04-16T01:23:38.868Z,97330.92
2023-04-16T01:26:06.956Z,97328.34
2023-04-16T01:28:35.423Z,97327.91
2023-04-16T01:31:03.782Z,97324.94
2023-04-16T01:33:55.237Z,97322.34
2023-04-16T01:36:23.805Z,97321.58
2023-04-16T01:38:51.866Z,97318.20
2023-04-16T01:41:20.044Z,97318.46
2023-04-16T01:43:48.094Z,97317.42
2023-04-16T01:46:27.194Z,97318.84
2023-04-16T01:48:55.536Z,97316.52
2023-04-16T01:51:24.209Z,97319.69
2023-04-16T01:53:52.277Z,97321.40
2023-04-16T01:56:20.621Z,97319.47
2023-04-16T01:58:48.840Z,97321.54
2023-04-16T02:01:18.265Z,97319.89
2023-04-16T02:03:47.789Z,97316.88
2023-04-16T02:06:16.644Z,97314.36
2023-04-16T02:08:44.803Z,97312.67
2023-04-16T02:11:13.083Z,97314.39
2023-04-16T02:13:41.036Z,97316.11
2023-04-16T02:16:09.231Z,97318.52
2023-04-16T02:19:04.726Z,97316.05
2023-04-16T02:21:34.541Z,97320.31
2023-04-16T02:24:02.909Z,97323.94
2023-04-16T02:26:31.920Z,97323.20
2023-04-16T02:29:05.188Z,97317.45
2023-04-16T02:31:40.060Z,97316.80
2023-04-16T02:34:08.607Z,97320.00
2023-04-16T02:36:36.804Z,97320.09
2023-04-16T02:39:05.353Z,97321.39
2023-04-16T02:41:33.309Z,97322.48
2023-04-16T02:44:01.821Z,97324.88
2023-04-16T02:46:30.021Z,97327.39
2023-04-16T02:48:58.164Z,97327.81
2023-04-16T02:51:26.539Z,97332.03
2023-04-16T02:53:54.611Z,97334.03
2023-04-16T02:56:22.776Z,97331.65
2023-04-16T02:58:50.861Z,97328.73
2023-04-16T03:01:19.097Z,97327.07
2023-04-16T03:03:47.215Z,97326.86
2023-04-16T03:06:15.782Z,97327.29
2023-04-16T03:08:43.854Z,97327.98
2023-04-16T03:11:12.126Z,97328.58
2023-04-16T03:13:40.085Z,97328.40
2023-04-16T03:16:08.390Z,97330.39
2023-04-16T03:18:36.391Z,97332.52
2023-04-16T03:21:05.143Z,97332.65
2023-04-16T03:23:33.392Z,97332.84
2023-04-16T03:26:01.349Z,97332.98
2023-04-16T03:28:30.461Z,97331.73
2023-04-16T03:30:59.593Z,97329.95
2023-04-16T03:33:27.824Z,97337.57
2023-04-16T03:35:57.444Z,97338.42
2023-04-16T03:38:27.168Z,97340.59
2023-04-16T03:40:56.965Z,97343.70
2023-04-16T03:43:25.752Z,97345.52
2023-04-16T03:45:54.029Z,97351.27
2023-04-16T03:48:23.427Z,97353.28
2023-04-16T03:50:51.388Z,97352.94
2023-04-16T03:53:20.690Z,97354.02
2023-04-16T03:55:52.522Z,97357.63
2023-04-16T03:58:21.319Z,97361.00
2023-04-16T04:00:49.488Z,97362.56
2023-04-16T04:03:18.752Z,97359.30
2023-04-16T04:05:48.368Z,97359.35
2023-04-16T04:08:20.071Z,97362.59
2023-04-16T04:10:48.349Z,97369.80
2023-04-16T04:13:16.822Z,97370.98
2023-04-16T04:15:45.108Z,97369.50
2023-04-16T04:18:13.079Z,97369.02
2023-04-16T04:20:41.588Z,97371.44
2023-04-16T04:23:09.733Z,97376.12
2023-04-16T04:25:37.899Z,97379.94
2023-04-16T04:28:06.074Z,97381.72
2023-04-16T04:30:36.032Z,97384.92
2023-04-16T04:33:04.364Z,97383.77
2023-04-16T04:35:33.461Z,97381.52
2023-04-16T04:38:03.063Z,97381.23
2023-04-16T04:40:31.646Z,97386.51
2023-04-16T04:42:59.710Z,97387.19
2023-04-16T04:45:29.602Z,97385.25
2023-04-16T04:47:59.610Z,97385.88
2023-04-16T04:50:27.622Z,97388.91
2023-04-16T04:52:55.782Z,97389.10
2023-04-16T04:55:24.054Z,97390.84
2023-04-16T04:57:52.137Z,97391.33
2023-04-16T05:00:21.324Z,97383.44
2023-04-16T05:02:54.128Z,97386.39
2023-04-16T05:05:22.376Z,97389.00
2023-04-16T05:07:50.757Z,97390.00
2023-04-16T05:10:18.840Z,97386.98
2023-04-16T05:12:49.577Z,97389.71
2023-04-16T05:15:17.745Z,97390.75
2023-04-16T05:17:46.074Z,97393.61
2023-04-16T05:20:14.447Z,97391.92
2023-04-16T05:22:42.469Z,97394.14
2023-04-16T05:25:10.454Z,97395.70
2023-04-16T05:27:38.669Z,97393.91
2023-04-16T05:30:08.170Z,97395.48
2023-04-16T05:32:36.769Z,97396.17
2023-04-16T05:35:05.788Z,97397.91
2023-04-16T05:37:33.862Z,97395.70
2023-04-16T05:40:01.801Z,97389.34
2023-04-16T05:42:29.900Z,97387.61
2023-04-16T05:44:57.969Z,97384.80
2023-04-16T05:47:26.101Z,97379.27
2023-04-16T05:49:54.211Z,97373.05
2023-04-16T05:52:22.290Z,97375.48
2023-04-16T05:54:50.318Z,97375.73
2023-04-16T05:57:18.421Z,97372.56
2023-04-16T05:59:46.288Z,97373.07
2023-04-16T06:02:14.452Z,97373.52
2023-04-16T06:04:42.635Z,97377.55
2023-04-16T06:07:10.813Z,97374.59
2023-04-16T06:09:38.901Z,97373.33
2023-04-16T06:12:06.949Z,97368.79
2023-04-16T06:14:34.910Z,97367.09
2023-04-16T06:17:02.982Z,97366.00
2023-04-16T06:19:31.057Z,97367.05
2023-04-16T06:21:59.745Z,97367.47
2023-04-16T06:24:27.916Z,97365.34
2023-04-16T06:26:55.885Z,97368.27
2023-04-16T06:29:30.670Z,97367.11
2023-04-16T06:32:08.743Z,97362.34
2023-04-16T06:34:38.632Z,97361.71
2023-04-16T06:37:09.104Z,97360.93
2023-04-16T06:39:38.602Z,97363.77
2023-04-16T06:42:06.757Z,97365.61
2023-04-16T06:44:36.032Z,97365.05
2023-04-16T06:47:04.186Z,97360.40
2023-04-16T06:49:32.406Z,97362.65
2023-04-16T06:52:00.968Z,97363.83
2023-04-16T06:54:28.923Z,97363.29
2023-04-16T06:56:56.851Z,97363.80
2023-04-16T06:59:25.170Z,97362.44
2023-04-16T07:01:53.296Z,97362.70
2023-04-16T07:04:21.909Z,97359.37
2023-04-16T07:06:50.100Z,97361.80
2023-04-16T07:09:18.177Z,97359.77
2023-04-16T07:11:46.728Z,97358.90
2023-04-16T07:14:14.933Z,97358.60
2023-04-16T07:16:42.969Z,97357.11
2023-04-16T07:19:11.603Z,97351.41
2023-04-16T07:21:42.212Z,97351.81
2023-04-16T07:24:14.097Z,97352.92
2023-04-16T07:26:42.000Z,97356.34
2023-04-16T07:29:10.022Z,97356.73
2023-04-16T07:31:38.885Z,97354.15
2023-04-16T07:34:07.272Z,97353.23
2023-04-16T07:36:35.450Z,97353.80
2023-04-16T07:39:05.805Z,97350.33
2023-04-16T07:41:34.349Z,97347.92
2023-04-16T07:44:02.502Z,97349.75
2023-04-16T07:46:39.736Z,97347.64
2023-04-16T07:49:14.253Z,97347.66
2023-04-16T07:51:42.527Z,97349.58
2023-04-16T07:54:11.193Z,97345.98
2023-04-16T07:56:39.575Z,97339.53
2023-04-16T07:59:20.934Z,97337.91
2023-04-16T08:01:50.744Z,97337.64
2023-04-16T08:04:25.087Z,97335.90
2023-04-16T08:06:54.689Z,97332.00
2023-04-16T08:09:24.322Z,97336.31
2023-04-16T08:11:52.470Z,97331.58
2023-04-16T08:14:20.765Z,97324.36
2023-04-16T08:16:50.151Z,97321.23
2023-04-16T08:19:18.625Z,97317.20
2023-04-16T08:21:47.539Z,97319.40
2023-04-16T08:24:15.712Z,97320.68
2023-04-16T08:26:43.877Z,97321.20
2023-04-16T08:29:12.122Z,97319.48
2023-04-16T08:31:41.607Z,97313.23
2023-04-16T08:34:11.677Z,97311.98
2023-04-16T08:36:41.385Z,97313.25
2023-04-16T08:39:09.844Z,97312.61
2023-04-16T08:41:42.351Z,97315.59
2023-04-16T08:44:19.265Z,97315.05
2023-04-16T08:46:48.318Z,97314.61
2023-04-16T08:49:20.509Z,97315.67
2023-04-16T08:51:52.275Z,97311.73
2023-04-16T08:54:26.534Z,97311.98
2023-04-16T08:56:57.778Z,97313.05
2023-04-16T08:59:27.285Z,97312.92
2023-04-16T09:01:59.860Z,97316.35
2023-04-16T09:04:29.317Z,97315.34
2023-04-16T09:06:58.973Z,97314.61
2023-04-16T09:09:28.703Z,97314.60
2023-04-16T09:11:56.770Z,97316.69
2023-04-16T09:14:25.544Z,97315.41
2023-04-16T09:16:57.499Z,97308.25
2023-04-16T09:19:26.185Z,97302.30
2023-04-16T09:21:54.360Z,97303.67
2023-04-16T09:24:23.060Z,97302.87
2023-04-16T09:26:52.819Z,97305.20
2023-04-16T09:29:38.143Z,97302.84
2023-04-16T09:32:11.739Z,97300.88
2023-04-16T09:34:59.865Z,97302.10
2023-04-16T09:37:32.143Z,97302.48
2023-04-16T09:40:02.608Z,97294.59
2023-04-16T09:42:32.486Z,97290.84
2023-04-16T09:45:02.798Z,97287.24
2023-04-16T09:47:44.780Z,97285.73
2023-04-16T09:50:18.633Z,97280.83
2023-04-16T09:52:51.535Z,97280.00
2023-04-16T09:55:27.176Z,97280.39
2023-04-16T09:58:02.311Z,97276.77
2023-04-16T10:00:31.703Z,97274.39
2023-04-16T10:03:07.234Z,97273.51
2023-04-16T10:05:35.848Z,97272.77
2023-04-16T10:08:12.212Z,97269.86
2023-04-16T10:10:40.636Z,97265.77
2023-04-16T10:13:08.930Z,97260.73
2023-04-16T10:15:37.514Z,97257.14
2023-04-16T10:18:06.940Z,97254.25
2023-04-16T10:20:35.799Z,97252.63
2023-04-16T10:23:04.092Z,97250.85
2023-04-16T10:25:33.141Z,97246.58
2023-04-16T10:28:01.952Z,97247.36
2023-04-16T10:30:30.441Z,97244.44
2023-04-16T10:33:00.678Z,97245.95
2023-04-16T10:35:30.677Z,97246.27
2023-04-16T10:38:22.344Z,97244.09
2023-04-16T10:40:50.775Z,97242.73
2023-04-16T10:43:19.668Z,97242.40
2023-04-16T10:45:48.661Z,97242.98
2023-04-16T10:48:19.183Z,97233.60
2023-04-16T10:50:58.002Z,97229.35
2023-04-16T10:53:27.722Z,97227.69
2023-04-16T10:56:05.609Z,97226.27
2023-04-16T10:58:36.326Z,97225.67
2023-04-16T11:01:12.521Z,97230.52
2023-04-16T11:03:47.157Z,97228.55
2023-04-16T11:06:18.114Z,97226.90
2023-04-16T11:08:54.583Z,97225.53
2023-04-16T11:11:24.043Z,97222.89
2023-04-16T11:13:56.548Z,97224.15
2023-04-16T11:16:26.351Z,97226.73
2023-04-16T11:18:56.710Z,97229.66
2023-04-16T11:21:25.447Z,97226.05
2023-04-16T11:23:53.919Z,97221.78
2023-04-16T11:26:30.818Z,97221.55
2023-04-16T11:29:00.449Z,97218.55
2023-04-16T11:31:28.775Z,97211.65
2023-04-16T11:33:57.335Z,97209.33
2023-04-16T11:36:27.723Z,97214.80
2023-04-16T11:39:03.774Z,97208.44
2023-04-16T11:41:31.936Z,97203.05
2023-04-16T11:43:59.989Z,97200.65
2023-04-16T11:46:40.023Z,97197.36
2023-04-16T11:49:08.347Z,97192.30
2023-04-16T11:51:45.803Z,97189.30
2023-04-16T11:54:21.150Z,97185.20
2023-04-16T11:56:53.219Z,97180.98
2023-04-16T11:59:23.686Z,97176.30
2023-04-16T12:01:56.370Z,97168.07
2023-04-16T12:04:27.310Z,97165.45
2023-04-16T12:07:06.946Z,97168.96
2023-04-16T12:09:38.720Z,97165.77
2023-04-16T12:12:31.163Z,97162.24
2023-04-16T12:15:03.816Z,97160.27
2023-04-16T12:17:34.041Z,97158.70
2023-04-16T12:20:11.158Z,97156.69
2023-04-16T12:22:41.517Z,97151.83
2023-04-16T12:25:14.419Z,97153.23
2023-04-16T12:27:53.272Z,97152.19
2023-04-16T12:30:24.439Z,97151.48
2023-04-16T12:33:13.270Z,97147.70
2023-04-16T12:35:43.516Z,97150.10
2023-04-16T12:38:12.327Z,97145.42
2023-04-16T12:40:40.698Z,97135.72
2023-04-16T12:43:10.588Z,97134.17
2023-04-16T12:45:39.782Z,97130.67
2023-04-16T12:48:08.087Z,97130.39
2023-04-16T12:50:36.359Z,97124.19
2023-04-16T12:53:04.324Z,97121.86
2023-04-16T12:55:32.511Z,97118.11
2023-04-16T12:58:01.132Z,97111.99
2023-04-16T13:00:29.254Z,97112.44
2023-04-16T13:02:57.315Z,97109.77
2023-04-16T13:05:25.912Z,97108.31
2023-04-16T13:07:54.302Z,97104.93
2023-04-16T13:10:23.754Z,97103.84
2023-04-16T13:12:52.076Z,97104.33
2023-04-16T13:15:20.657Z,97103.52
2023-04-16T13:17:48.787Z,97100.80
2023-04-16T13:20:16.902Z,97101.73
2023-04-16T13:22:45.179Z,97099.39
2023-04-16T13:25:13.260Z,97100.64
2023-04-16T13:27:41.732Z,97103.48
2023-04-16T13:30:10.410Z,97106.89
2023-04-16T13:32:38.616Z,97118.48
2023-04-16T13:35:07.213Z,97127.70
2023-04-16T13:37:35.236Z,97139.38
2023-04-16T13:40:03.530Z,97141.16
2023-04-16T13:42:32.501Z,97140.40
2023-04-16T13:45:01.384Z,97140.45
2023-04-16T13:47:29.466Z,97139.59
2023-04-16T13:49:57.633Z,97128.23
2023-04-16T13:52:25.916Z,97133.98
2023-04-16T13:54:54.192Z,97141.56
2023-04-16T13:57:22.970Z,97146.02
2023-04-16T13:59:51.047Z,97151.37
2023-04-16T14:02:20.475Z,97156.71
2023-04-16T14:04:49.427Z,97153.84
2023-04-16T14:07:17.517Z,97154.23
2023-04-16T14:09:45.780Z,97151.89
2023-04-16T14:12:13.950Z,97156.30
2023-04-16T14:14:42.221Z,97155.52
2023-04-16T14:17:10.912Z,97157.14
2023-04-16T14:19:39.397Z,97159.00
2023-04-16T14:22:09.378Z,97163.02
2023-04-16T14:24:37.648Z,97167.50
2023-04-16T14:27:08.500Z,97163.31
2023-04-16T14:29:36.897Z,97168.35
2023-04-16T14:32:05.876Z,97171.92
2023-04-16T14:34:34.077Z,97176.99
2023-04-16T14:37:02.475Z,97174.98
2023-04-16T14:39:31.234Z,97168.04
2023-04-16T14:41:59.298Z,97161.17
2023-04-16T14:44:27.465Z,97162.15
2023-04-16T14:46:56.053Z,97161.70
2023-04-16T14:49:24.330Z,97157.46
2023-04-16T14:51:52.512Z,97154.46
2023-04-16T14:54:20.651Z,97160.41
2023-04-16T14:56:49.559Z,97158.89
2023-04-16T14:59:17.640Z,97154.08
2023-04-16T15:01:46.528Z,97156.21
2023-04-16T15:04:15.072Z,97153.94
2023-04-16T15:06:43.426Z,97150.58
2023-04-16T15:09:11.760Z,97151.36
2023-04-16T15:11:39.831Z,97154.65
2023-04-16T15:14:07.814Z,97153.04
2023-04-16T15:16:35.953Z,97149.20
2023-04-16T15:19:05.142Z,97153.25
2023-04-16T15:21:33.451Z,97148.77
2023-04-16T15:24:01.510Z,97147.52
2023-04-16T15:26:30.730Z,97150.02
2023-04-16T15:28:58.680Z,97158.97
2023-04-16T15:31:26.872Z,97169.05
2023-04-16T15:33:56.312Z,97181.13
2023-04-16T15:36:24.430Z,97191.45
2023-04-16T15:38:52.907Z,97191.91
2023-04-16T15:41:21.215Z,97178.04
2023-04-16T15:43:49.677Z,97173.43
2023-04-16T15:46:17.921Z,97177.80
2023-04-16T15:48:46.173Z,97178.52
2023-04-16T15:51:14.382Z,97184.64
2023-04-16T15:53:44.927Z,97186.15
2023-04-16T15:56:12.881Z,97186.02
2023-04-16T15:58:41.465Z,97183.27
2023-04-16T16:01:09.645Z,97182.27
2023-04-16T16:03:37.795Z,97184.02
2023-04-16T16:06:08.577Z,97184.56
2023-04-16T16:08:38.414Z,97187.86
2023-04-16T16:11:07.149Z,97186.45
2023-04-16T16:13:37.170Z,97184.40
2023-04-16T16:16:06.075Z,97183.83
2023-04-16T16:18:34.118Z,97182.36
2023-04-16T16:21:02.348Z,97182.05
2023-04-16T16:23:30.681Z,97181.89
2023-04-16T16:25:58.855Z,97180.89
2023-04-16T16:28:27.329Z,97184.70
2023-04-16T16:30:55.857Z,97183.77
2023-04-16T16:33:23.874Z,97183.09
2023-04-16T16:35:51.930Z,97182.44
2023-04-16T16:38:20.233Z,97180.90
2023-04-16T16:40:48.407Z,97175.33
2023-04-16T16:43:17.179Z,97174.30
2023-04-16T16:45:46.794Z,97178.95
2023-04-16T16:48:14.867Z,97177.04
2023-04-16T16:50:42.832Z,97179.13
2023-04-16T16:53:11.004Z,97181.06
2023-04-16T16:55:39.511Z,97181.49
2023-04-16T16:58:07.862Z,97182.58
2023-04-16T17:00:36.170Z,97182.17
2023-04-16T17:03:04.435Z,97185.40
2023-04-16T17:05:32.794Z,97189.57
2023-04-16T17:08:00.820Z,97191.96
2023-04-16T17:10:28.938Z,97195.06
2023-04-16T17:15:25.466Z,97206.06
2023-04-16T17:17:53.904Z,97207.76
2023-04-16T17:20:22.338Z,97213.25
2023-04-16T17:22:51.357Z,97214.15
2023-04-16T17:25:19.422Z,97222.33
2023-04-16T17:27:47.485Z,97223.16
2023-04-16T17:30:17.098Z,97225.80
2023-04-16T17:32:45.132Z,97229.46
2023-04-16T17:35:14.092Z,97231.70
2023-04-16T17:37:42.210Z,97232.98
2023-04-16T17:40:12.631Z,97236.12
2023-04-16T17:42:40.731Z,97238.54
2023-04-16T17:45:09.608Z,97238.73
2023-04-16T17:47:37.803Z,97238.48
2023-04-16T17:50:07.304Z,97240.14
2023-04-16T17:52:35.660Z,97244.21
2023-04-16T17:55:07.771Z,97242.39
2023-04-16T17:57:35.693Z,97244.43
2023-04-16T18:00:11.378Z,97245.47
2023-04-16T18:02:42.795Z,97247.00
2023-04-16T18:05:12.146Z,97247.69
2023-04-16T18:07:40.453Z,97247.92
2023-04-16T18:10:10.073Z,97249.52
2023-04-16T18:12:38.029Z,97251.41
2023-04-16T18:15:07.227Z,97253.77
2023-04-16T18:17:35.549Z,97256.08
2023-04-16T18:20:06.154Z,97257.11
2023-04-16T18:22:34.442Z,97258.17
2023-04-16T18:25:02.502Z,97259.23
2023-04-16T18:27:30.549Z,97259.64
2023-04-16T18:29:59.499Z,97258.86
2023-04-16T18:32:30.841Z,97262.69
2023-04-16T18:34:59.569Z,97263.83
2023-04-16T18:37:27.567Z,97263.63
2023-04-16T18:39:57.777Z,97265.35
2023-04-16T18:42:29.730Z,97269.02
2023-04-16T18:44:59.472Z,97273.87
2023-04-16T18:47:28.035Z,97274.49
2023-04-16T18:49:56.094Z,97276.35
2023-04-16T18:52:24.165Z,97277.38
2023-04-16T18:54:52.121Z,97281.05
2023-04-16T18:57:22.758Z,97283.97
2023-04-16T18:59:50.736Z,97288.42
2023-04-16T19:02:18.838Z,97287.89
2023-04-16T19:04:47.179Z,97289.59
2023-04-16T19:07:15.701Z,97291.27
2023-04-16T19:09:43.825Z,97287.66
2023-04-16T19:12:12.019Z,97291.38
2023-04-16T19:14:40.080Z,97293.48
2023-04-16T19:17:08.153Z,97294.25
2023-04-16T19:19:36.228Z,97295.18
2023-04-16T19:22:04.291Z,97295.09
2023-04-16T19:24:34.142Z,97294.78
2023-04-16T19:27:02.791Z,97294.39
2023-04-16T19:29:35.181Z,97291.69
2023-04-16T19:32:03.473Z,97295.80
2023-04-16T19:34:31.845Z,97293.84
2023-04-16T19:36:59.813Z,97290.98
2023-04-16T19:39:31.752Z,97289.05
2023-04-16T19:41:59.830Z,97287.58
2023-04-16T19:44:27.901Z,97286.81
2023-04-16T19:46:56.360Z,97282.81
2023-04-16T19:49:25.570Z,97284.26
2023-04-16T19:51:53.735Z,97283.63
2023-04-16T19:54:22.076Z,97284.14
2023-04-16T19:56:53.461Z,97284.71
2023-04-16T19:59:21.749Z,97285.81
2023-04-16T20:01:50.083Z,97285.13
2023-04-16T20:04:18.619Z,97287.08
2023-04-16T20:06:46.769Z,97283.42
2023-04-16T20:09:14.945Z,97283.32
2023-04-16T20:11:43.113Z,97280.55
2023-04-16T20:14:11.489Z,97276.44
2023-04-16T20:16:39.836Z,97280.83
2023-04-16T20:19:09.015Z,97282.90
2023-04-16T20:21:37.442Z,97283.08
2023-04-16T20:24:10.658Z,97280.92
2023-04-16T20:26:39.117Z,97275.29
2023-04-16T20:29:07.375Z,97274.60
2023-04-16T20:31:35.574Z,97273.15
2023-04-16T20:34:04.048Z,97273.23
2023-04-16T20:36:32.127Z,97270.05
2023-04-16T20:39:02.348Z,97270.70
2023-04-16T20:41:31.121Z,97273.63
2023-04-16T20:44:05.263Z,97274.23
2023-04-16T20:46:36.340Z,97277.04
2023-04-16T20:49:06.293Z,97279.75
2023-04-16T20:51:34.765Z,97283.50
2023-04-16T20:54:03.683Z,97279.91
2023-04-16T20:56:31.847Z,97280.86
2023-04-16T20:59:00.020Z,97281.66
2023-04-16T21:01:28.225Z,97281.65
2023-04-16T21:03:57.231Z,97276.17
2023-04-16T21:06:25.654Z,97279.95
2023-04-16T21:08:53.616Z,97279.23
2023-04-16T21:11:21.588Z,97274.16
2023-04-16T21:13:49.557Z,97269.68
2023-04-16T21:16:18.693Z,97265.86
2023-04-16T21:18:46.835Z,97267.00
2023-04-16T21:21:14.998Z,97269.05
2023-04-16T21:23:43.031Z,97265.25
2023-04-16T21:26:11.260Z,97266.37
2023-04-16T21:28:39.325Z,97267.31
2023-04-16T21:31:07.530Z,97267.16
2023-04-16T21:33:36.172Z,97264.05
2023-04-16T21:36:04.448Z,97263.77
2023-04-16T21:38:32.648Z,97260.20
2023-04-16T21:41:01.706Z,97261.96
2023-04-16T21:43:32.652Z,97258.83
2023-04-16T21:46:00.725Z,97255.51
2023-04-16T21:48:28.897Z,97254.16
2023-04-16T21:50:59.882Z,97251.95
2023-04-16T21:53:32.115Z,97252.22
2023-04-16T21:56:00.906Z,97255.73
2023-04-16T21:58:29.055Z,97255.64
2023-04-16T22:00:57.176Z,97252.93
2023-04-16T22:03:26.604Z,97252.20
2023-04-16T22:06:01.277Z,97249.67
2023-04-16T22:08:30.609Z,97250.33
2023-04-16T22:11:00.551Z,97249.85
2023-04-16T22:13:32.413Z,97249.15
2023-04-16T22:16:04.138Z,97248.86
2023-04-16T22:18:33.152Z,97249.48
2023-04-16T22:21:01.845Z,97246.21
2023-04-16T22:23:30.040Z,97247.11
2023-04-16T22:25:58.010Z,97251.32
2023-04-16T22:28:25.942Z,97251.75
2023-04-16T22:30:54.051Z,97249.84
2023-04-16T22:33:22.328Z,97246.13
2023-04-16T22:35:50.393Z,97246.33
2023-04-16T22:38:18.463Z,97245.41
2023-04-16T22:40:51.757Z,97244.54
2023-04-16T22:43:19.938Z,97245.21
2023-04-16T22:45:48.234Z,97240.90
2023-04-16T22:48:16.496Z,97240.01
2023-04-16T22:50:48.766Z,97239.14
2023-04-16T22:53:17.132Z,97240.77
2023-04-16T22:55:45.092Z,97240.79
2023-04-16T22:58:13.135Z,97238.36
2023-04-16T23:00:41.227Z,97236.23
2023-04-16T23:03:09.712Z,97234.74
2023-04-16T23:05:37.753Z,97233.32
2023-04-16T23:08:06.163Z,97232.89
2023-04-16T23:10:34.249Z,97231.27
2023-04-16T23:13:02.710Z,97234.04
2023-04-16T23:15:31.194Z,97231.73
2023-04-16T23:17:59.432Z,97230.05
2023-04-16T23:20:29.413Z,97231.86
2023-04-16T23:22:57.668Z,97227.80
2023-04-16T23:25:25.799Z,97229.25
2023-04-16T23:27:53.796Z,97227.98
2023-04-16T23:30:21.835Z,97225.59
2023-04-16T23:32:50.034Z,97222.34
2023-04-16T23:35:22.970Z,97217.36
2023-04-16T23:37:51.728Z,97216.43
2023-04-16T23:40:19.816Z,97216.52
2023-04-16T23:42:47.862Z,97211.19
2023-04-16T23:45:16.275Z,97211.77
2023-04-16T23:47:44.795Z,97209.74
2023-04-16T23:50:13.186Z,97209.40
2023-04-16T23:52:41.367Z,97209.10
2023-04-16T23:55:09.652Z,97213.95
2023-04-16T23:57:38.123Z,97208.67
